Time;durP1;ratioP1;P1;durP2;ratioP2;P2;SDS_P1;SDS_P2;PMS_P1;PMS_P2;Temp;Humidity;BMP_temperature;BMP_pressure;BME280_temperature;BME280_humidity;BME280_pressure;Samples;Min_cycle;Max_cycle;Signal;HPM_P1;HPM_P2
2022/07/13 00:00:36;;;;;;;3.95;1.83;;;;;;;17.97;62.21;99818.19;5161713;28;20057;-68
2022/07/13 00:03:26;;;;;;;2.92;1.83;;;;;;;18.00;62.54;99835.81;5151580;28;20148;-71
2022/07/13 00:06:18;;;;;;;4.07;2.13;;;;;;;17.86;62.15;99831.16;5160688;28;20427;-69
2022/07/13 00:09:08;;;;;;;5.43;1.98;;;;;;;17.81;62.34;99835.19;5147073;28;20049;-68
2022/07/13 00:11:57;;;;;;;4.10;1.75;;;;;;;17.78;61.47;99830.16;5160965;28;20082;-68
2022/07/13 00:14:47;;;;;;;3.13;1.65;;;;;;;17.67;62.40;99837.66;5161621;28;20432;-69
2022/07/13 00:17:37;;;;;;;2.63;1.38;;;;;;;17.65;62.74;99832.50;5161781;28;20054;-69
2022/07/13 00:20:28;;;;;;;2.30;1.65;;;;;;;17.59;62.33;99841.22;5160413;28;20046;-69
2022/07/13 00:23:19;;;;;;;2.67;1.50;;;;;;;17.60;62.00;99824.94;5158575;28;20051;-69
2022/07/13 00:26:09;;;;;;;2.42;1.73;;;;;;;17.55;61.56;99827.31;5153960;28;20054;-69
2022/07/13 00:28:59;;;;;;;5.38;1.90;;;;;;;17.75;61.91;99830.47;5161661;28;20221;-71
2022/07/13 00:31:49;;;;;;;4.00;1.88;;;;;;;17.64;61.48;99827.28;5144024;28;20197;-69
2022/07/13 00:34:39;;;;;;;5.65;1.90;;;;;;;17.59;62.33;99819.75;5159361;28;20061;-70
2022/07/13 00:37:30;;;;;;;3.85;1.80;;;;;;;17.43;62.14;99825.97;5161402;28;20101;-69
2022/07/13 00:40:20;;;;;;;1.83;1.50;;;;;;;17.35;63.08;99818.75;5159029;28;20376;-68
2022/07/13 00:43:10;;;;;;;5.70;2.03;;;;;;;17.51;62.47;99828.63;5155029;28;20073;-69
2022/07/13 00:46:00;;;;;;;3.95;1.88;;;;;;;17.46;63.07;99827.47;5160052;28;20147;-68
2022/07/13 00:48:51;;;;;;;2.90;1.70;;;;;;;17.36;62.83;99817.75;5161006;28;20567;-69
2022/07/13 00:51:41;;;;;;;1.98;1.77;;;;;;;17.42;62.48;99824.28;5159154;28;20298;-69
2022/07/13 00:54:31;;;;;;;3.65;1.98;;;;;;;17.40;62.78;99834.34;5140527;28;20189;-71
2022/07/13 00:57:23;;;;;;;3.67;1.95;;;;;;;17.17;63.48;99815.38;5152791;28;20052;-70
2022/07/13 01:00:14;;;;;;;3.05;1.83;;;;;;;17.16;64.06;99812.88;5159430;28;20415;-72
2022/07/13 01:03:05;;;;;;;5.93;2.08;;;;;;;17.05;64.91;99822.06;5161865;28;20061;-68
2022/07/13 01:05:56;;;;;;;5.82;2.50;;;;;;;17.22;64.24;99823.78;5164461;28;20058;-68
2022/07/13 01:08:46;;;;;;;5.50;2.10;;;;;;;17.19;63.89;99810.72;5149667;28;20062;-68
2022/07/13 01:11:39;;;;;;;3.00;1.92;;;;;;;17.09;63.62;99804.69;5163795;28;20054;-68
2022/07/13 01:14:29;;;;;;;2.97;1.77;;;;;;;17.14;64.13;99813.03;5163733;28;20073;-70
2022/07/13 01:17:20;;;;;;;2.75;2.20;;;;;;;17.19;63.55;99797.31;5163891;28;20412;-68
2022/07/13 01:20:10;;;;;;;7.18;2.22;;;;;;;17.27;63.54;99809.88;5163084;28;20089;-68
2022/07/13 01:23:11;;;;;;;3.60;2.05;;;;;;;17.22;63.89;99806.84;5154820;28;20073;-69
2022/07/13 01:26:02;;;;;;;3.80;1.92;;;;;;;16.85;64.40;99779.53;5165712;28;20065;-71
2022/07/13 01:28:52;;;;;;;2.33;1.90;;;;;;;17.04;65.32;99807.00;5145556;28;20061;-67
2022/07/13 01:31:42;;;;;;;3.50;1.90;;;;;;;17.16;64.13;99811.03;5157281;28;20085;-68
2022/07/13 01:34:32;;;;;;;3.67;2.40;;;;;;;17.31;64.79;99808.53;5164610;28;20065;-69
2022/07/13 01:37:23;;;;;;;3.78;2.28;;;;;;;17.44;65.12;99806.19;5162928;28;20054;-68
2022/07/13 01:40:14;;;;;;;4.55;2.40;;;;;;;17.43;64.53;99809.03;5162441;28;20054;-69
2022/07/13 01:43:05;;;;;;;2.22;1.77;;;;;;;17.45;63.69;99809.69;5148627;28;20072;-68
2022/07/13 01:45:55;;;;;;;3.35;2.10;;;;;;;17.46;64.05;99811.38;5163134;28;20069;-71
2022/07/13 01:48:46;;;;;;;4.95;2.50;;;;;;;17.34;64.04;99806.34;5161198;28;20047;-69
2022/07/13 01:51:37;;;;;;;6.47;2.10;;;;;;;17.34;63.84;99798.31;5161785;28;20452;-68
2022/07/13 01:54:27;;;;;;;5.38;2.28;;;;;;;17.53;64.18;99805.16;5162018;28;20403;-68
2022/07/13 01:57:19;;;;;;;5.43;2.00;;;;;;;17.25;64.54;99783.25;5162126;28;20133;-71
2022/07/13 02:00:20;;;;;;;4.65;2.08;;;;;;;17.59;64.61;99799.13;5158543;28;20528;-68
2022/07/13 02:03:11;;;;;;;7.43;2.20;;;;;;;17.42;63.69;99780.53;5161907;28;20048;-70
2022/07/13 02:06:01;;;;;;;4.10;2.50;;;;;;;17.48;64.19;99774.50;5163233;28;20556;-68
2022/07/13 02:08:51;;;;;;;3.97;2.30;;;;;;;17.45;64.12;99781.06;5163334;28;20516;-69
2022/07/13 02:11:44;;;;;;;3.95;2.22;;;;;;;17.32;64.97;99773.53;5157668;28;20058;-68
2022/07/13 02:14:34;;;;;;;5.50;2.20;;;;;;;17.54;64.55;99779.19;5150102;28;20057;-68
2022/07/13 02:17:25;;;;;;;4.65;2.38;;;;;;;17.68;63.38;99772.28;5162454;28;20144;-68
2022/07/13 02:20:15;;;;;;;4.60;2.30;;;;;;;17.66;63.22;99771.66;5158912;28;20042;-71
2022/07/13 02:23:06;;;;;;;3.38;2.25;;;;;;;17.64;63.18;99765.59;5161492;28;20460;-68
2022/07/13 02:25:56;;;;;;;2.13;1.95;;;;;;;17.50;63.57;99765.28;5162011;28;20051;-68
2022/07/13 02:28:46;;;;;;;4.75;2.28;;;;;;;17.29;63.29;99736.34;5163591;28;20412;-68
2022/07/13 02:31:36;;;;;;;2.67;1.90;;;;;;;17.32;63.00;99751.25;5161481;28;20109;-68
2022/07/13 02:34:27;;;;;;;3.05;1.92;;;;;;;17.38;63.46;99754.09;5162009;28;20529;-68
2022/07/13 02:37:17;;;;;;;4.30;2.10;;;;;;;17.40;63.68;99745.03;5162133;28;20054;-68
2022/07/13 02:40:10;;;;;;;2.78;2.05;;;;;;;17.38;63.96;99743.38;5161854;28;20129;-68
2022/07/13 02:43:08;;;;;;;4.03;2.08;;;;;;;17.48;64.37;99761.97;5151394;28;20059;-70
2022/07/13 02:45:58;;;;;;;3.25;1.73;;;;;;;17.59;63.35;99758.91;5157845;28;20200;-69
2022/07/13 02:48:49;;;;;;;6.93;2.30;;;;;;;17.51;64.06;99752.72;5148731;28;20065;-69
2022/07/13 02:51:40;;;;;;;3.08;1.88;;;;;;;17.53;63.98;99750.72;5158229;28;20148;-69
2022/07/13 02:54:32;;;;;;;2.72;2.15;;;;;;;17.46;63.95;99747.03;5161814;28;20137;-68
2022/07/13 02:57:23;;;;;;;3.72;1.92;;;;;;;17.35;65.09;99749.06;5161300;28;20104;-70
2022/07/13 03:00:17;;;;;;;2.55;2.00;;;;;;;17.51;63.95;99756.22;5160837;28;20515;-72
2022/07/13 03:03:07;;;;;;;5.03;2.22;;;;;;;17.44;65.16;99743.69;5160584;28;20519;-69
2022/07/13 03:05:58;;;;;;;2.45;2.10;;;;;;;17.53;64.81;99750.72;5195155;23;20131;-70
2022/07/13 03:08:48;;;;;;;2.67;2.10;;;;;;;17.47;64.74;99751.38;5197271;28;20052;-69
2022/07/13 03:11:38;;;;;;;4.22;2.30;;;;;;;17.47;64.75;99746.03;5200959;28;20435;-70
2022/07/13 03:14:30;;;;;;;8.10;2.10;;;;;;;17.45;63.78;99739.97;5186432;28;20128;-70
2022/07/13 03:17:20;;;;;;;3.78;2.17;;;;;;;17.47;63.85;99752.22;5198028;28;20049;-70
2022/07/13 03:20:11;;;;;;;4.25;1.80;;;;;;;17.39;64.09;99746.88;5200804;28;20076;-70
2022/07/13 03:23:02;;;;;;;4.15;2.08;;;;;;;17.50;64.36;99751.88;5191515;28;20054;-70
2022/07/13 03:25:52;;;;;;;3.97;2.00;;;;;;;17.62;63.61;99749.69;5196379;28;20053;-70
2022/07/13 03:28:43;;;;;;;2.85;2.17;;;;;;;17.55;63.07;99749.53;5187553;28;20049;-70
2022/07/13 03:31:35;;;;;;;4.65;2.00;;;;;;;17.47;62.56;99748.69;5200187;28;20526;-70
2022/07/13 03:34:27;;;;;;;3.58;1.90;;;;;;;17.32;63.51;99749.41;5201830;28;20132;-69
2022/07/13 03:37:18;;;;;;;3.50;2.00;;;;;;;17.57;63.53;99752.03;5201523;28;20061;-71
2022/07/13 03:40:11;;;;;;;2.25;2.05;;;;;;;17.64;62.27;99755.72;5199856;28;20049;-70
2022/07/13 03:43:01;;;;;;;4.47;1.90;;;;;;;17.46;62.45;99728.28;5200648;28;20053;-70
2022/07/13 03:45:52;;;;;;;3.40;2.15;;;;;;;17.34;63.02;99744.69;5200090;28;20051;-70
2022/07/13 03:48:43;;;;;;;3.25;1.85;;;;;;;17.27;63.49;99749.06;5186951;28;20130;-70
2022/07/13 03:51:33;;;;;;;2.53;1.80;;;;;;;17.25;62.77;99747.53;5198815;28;20064;-70
2022/07/13 03:54:24;;;;;;;4.18;2.20;;;;;;;16.91;64.48;99735.16;5201067;28;20195;-70
2022/07/13 03:57:14;;;;;;;1.67;1.58;;;;;;;17.12;63.50;99748.06;5201002;28;20134;-69
2022/07/13 04:00:07;;;;;;;6.43;1.90;;;;;;;17.07;63.77;99735.16;5200551;28;20092;-69
2022/07/13 04:03:04;;;;;;;2.05;1.85;;;;;;;17.00;63.39;99738.69;5201328;28;20049;-70
2022/07/13 04:05:55;;;;;;;3.63;2.50;;;;;;;17.01;63.68;99749.22;5200758;28;20438;-70
2022/07/13 04:08:46;;;;;;;3.42;2.05;;;;;;;16.95;63.29;99738.34;5186491;28;20424;-70
2022/07/13 04:11:36;;;;;;;5.20;2.10;;;;;;;16.95;63.57;99741.00;5199482;28;20125;-70
2022/07/13 04:14:26;;;;;;;3.22;2.13;;;;;;;16.96;63.72;99738.19;5191010;28;20432;-72
2022/07/13 04:17:17;;;;;;;3.22;1.77;;;;;;;16.89;63.86;99718.44;5199566;28;20064;-73
2022/07/13 04:20:09;;;;;;;4.22;2.10;;;;;;;16.88;64.79;99717.56;5180045;28;20048;-72
2022/07/13 04:22:59;;;;;;;3.08;2.58;;;;;;;17.08;63.51;99711.88;5189951;28;20045;-72
2022/07/13 04:25:49;;;;;;;3.80;2.60;;;;;;;17.05;63.72;99720.25;5200115;28;20055;-72
2022/07/13 04:28:40;;;;;;;4.28;2.65;;;;;;;17.16;63.12;99703.84;5201128;28;20060;-70
2022/07/13 04:31:35;;;;;;;5.60;2.70;;;;;;;17.31;63.44;99715.53;5197539;28;20474;-71
2022/07/13 04:34:25;;;;;;;3.38;2.65;;;;;;;17.19;63.47;99718.75;5200750;28;20061;-70
2022/07/13 04:37:15;;;;;;;4.50;2.50;;;;;;;17.10;64.93;99728.63;5203032;28;20056;-70
2022/07/13 04:40:07;;;;;;;2.92;2.28;;;;;;;17.50;63.09;99730.44;5206104;28;20048;-69
2022/07/13 04:42:58;;;;;;;2.35;2.08;;;;;;;17.43;63.77;99731.28;5204136;28;20056;-70
2022/07/13 04:45:49;;;;;;;3.03;2.10;;;;;;;17.36;63.70;99718.56;5204339;28;20056;-70
2022/07/13 04:48:39;;;;;;;3.90;2.13;;;;;;;17.48;63.55;99737.81;5192937;28;20096;-71
2022/07/13 04:51:30;;;;;;;3.60;2.42;;;;;;;17.51;63.88;99733.94;5203582;28;20591;-69
2022/07/13 04:54:21;;;;;;;2.70;1.90;;;;;;;17.55;64.74;99737.97;5204401;28;20567;-71
2022/07/13 04:57:12;;;;;;;2.75;1.85;;;;;;;17.60;64.44;99735.59;5204565;28;20115;-72
2022/07/13 05:00:05;;;;;;;3.20;2.08;;;;;;;17.34;63.94;99699.13;5204320;28;20469;-70
2022/07/13 05:02:57;;;;;;;3.10;2.00;;;;;;;17.69;63.66;99720.34;5203031;28;20083;-71
2022/07/13 05:05:49;;;;;;;3.38;2.15;;;;;;;17.62;64.05;99701.44;5204299;28;20107;-72
2022/07/13 05:08:40;;;;;;;2.13;1.92;;;;;;;17.88;63.61;99719.13;5203113;28;20072;-71
2022/07/13 05:11:31;;;;;;;2.22;2.03;;;;;;;18.00;63.64;99725.78;5202474;28;20507;-72
2022/07/13 05:14:22;;;;;;;3.60;1.85;;;;;;;18.17;61.29;99748.88;5203537;28;20064;-71
2022/07/13 05:17:16;;;;;;;1.88;1.75;;;;;;;18.27;62.05;99738.75;5203488;28;20671;-71
2022/07/13 05:20:07;;;;;;;4.03;2.50;;;;;;;18.45;60.57;99730.44;5201515;28;20055;-71
2022/07/13 05:23:02;;;;;;;5.50;2.17;;;;;;;18.69;60.42;99748.25;5200194;28;20053;-72
2022/07/13 05:25:55;;;;;;;4.40;2.50;;;;;;;18.75;61.42;99744.91;5202494;28;20123;-72
2022/07/13 05:28:46;;;;;;;5.15;2.78;;;;;;;19.06;60.04;99740.47;5201248;28;20555;-72
2022/07/13 05:31:38;;;;;;;5.95;2.50;;;;;;;19.26;59.17;99749.69;5200675;28;20041;-71
2022/07/13 05:34:29;;;;;;;5.40;2.25;;;;;;;19.39;58.62;99724.88;5204940;28;20046;-72
2022/07/13 05:37:20;;;;;;;7.07;2.20;;;;;;;19.74;58.65;99736.84;5204767;28;20539;-72
2022/07/13 05:40:11;;;;;;;5.70;2.70;;;;;;;19.78;58.56;99731.91;5203554;28;20143;-71
2022/07/13 05:43:01;;;;;;;3.88;2.15;;;;;;;19.79;57.62;99729.03;5200984;28;20064;-72
2022/07/13 05:45:51;;;;;;;3.28;1.95;;;;;;;19.82;57.52;99722.44;5201792;28;20060;-72
2022/07/13 05:48:42;;;;;;;4.72;2.60;;;;;;;19.89;57.91;99726.06;5204049;28;20061;-71
2022/07/13 05:51:32;;;;;;;4.15;1.90;;;;;;;19.90;57.90;99733.09;5202330;28;20049;-71
2022/07/13 05:54:28;;;;;;;3.40;1.70;;;;;;;20.08;57.55;99721.97;5182816;28;20134;-71
2022/07/13 05:57:35;;;;;;;4.55;1.92;;;;;;;20.41;56.56;99717.00;5192610;28;20138;-71
2022/07/13 06:00:26;;;;;;;3.33;1.70;;;;;;;20.47;57.20;99710.84;5178948;28;20057;-71
2022/07/13 06:03:16;;;;;;;3.22;1.35;;;;;;;20.97;54.78;99706.41;5178871;28;20222;-71
2022/07/13 06:06:06;;;;;;;4.55;1.90;;;;;;;20.99;54.96;99709.75;5177132;28;20170;-71
2022/07/13 06:08:57;;;;;;;4.13;1.55;;;;;;;21.06;55.81;99716.03;5180968;28;20061;-71
2022/07/13 06:11:47;;;;;;;3.10;1.65;;;;;;;21.03;53.94;99705.63;5183977;28;20057;-72
2022/07/13 06:14:38;;;;;;;5.18;1.67;;;;;;;21.18;55.59;99707.41;5190661;28;20063;-71
2022/07/13 06:17:28;;;;;;;2.67;1.55;;;;;;;21.41;53.86;99724.22;5188554;28;20057;-72
2022/07/13 06:20:18;;;;;;;4.07;1.60;;;;;;;21.48;55.31;99719.69;5186748;28;20053;-70
2022/07/13 06:23:11;;;;;;;3.75;1.60;;;;;;;21.75;54.69;99730.66;5189744;28;20072;-73
2022/07/13 06:26:02;;;;;;;1.45;1.30;;;;;;;21.87;53.77;99720.16;5200952;28;20053;-73
2022/07/13 06:28:52;;;;;;;2.28;1.52;;;;;;;22.23;52.52;99722.66;5200044;28;20179;-73
2022/07/13 06:31:45;;;;;;;2.47;1.38;;;;;;;22.40;51.56;99721.25;5201483;28;20093;-73
2022/07/13 06:34:36;;;;;;;6.82;1.70;;;;;;;22.44;51.67;99725.19;5200779;28;20083;-73
2022/07/13 06:37:26;;;;;;;1.50;1.40;;;;;;;22.54;51.15;99729.38;5200256;28;20072;-73
2022/07/13 06:40:35;;;;;;;1.92;1.45;;;;;;;22.51;51.67;99712.53;5199654;28;20266;-73
2022/07/13 06:43:26;;;;;;;2.65;1.27;;;;;;;22.78;52.15;99726.13;5201739;28;20107;-73
2022/07/13 06:46:16;;;;;;;5.28;1.38;;;;;;;22.85;51.27;99723.44;5202302;28;20057;-74
2022/07/13 06:49:15;;;;;;;6.65;1.38;;;;;;;22.74;49.75;99736.50;5197222;28;20069;-73
2022/07/13 06:52:11;;;;;;;2.63;1.63;;;;;;;22.71;51.34;99744.19;5199356;28;20514;-74
2022/07/13 06:55:02;;;;;;;3.03;1.58;;;;;;;22.71;51.80;99739.66;5204672;28;20533;-73
2022/07/13 06:57:55;;;;;;;1.77;1.30;;;;;;;23.10;50.09;99739.94;5204495;28;20418;-73
2022/07/13 07:00:46;;;;;;;7.72;1.35;;;;;;;23.09;49.14;99749.09;5199826;28;20084;-73
2022/07/13 07:03:36;;;;;;;3.33;1.50;;;;;;;23.33;49.47;99734.94;5198589;28;20053;-73
2022/07/13 07:06:26;;;;;;;3.20;1.17;;;;;;;24.52;46.84;99727.59;5200827;28;20065;-74
2022/07/13 07:09:17;;;;;;;1.52;1.30;;;;;;;25.57;43.89;99708.06;5200384;28;20419;-73
2022/07/13 07:12:07;;;;;;;5.18;1.25;;;;;;;26.11;43.45;99712.69;5189494;28;20049;-73
2022/07/13 07:14:58;;;;;;;3.13;1.27;;;;;;;27.26;40.98;99700.00;5180645;28;20183;-74
2022/07/13 07:17:49;;;;;;;3.53;0.80;;;;;;;27.87;39.79;99696.78;5199423;28;20154;-73
2022/07/13 07:20:39;;;;;;;6.97;1.10;;;;;;;28.38;38.42;99702.47;5176527;28;20061;-74
2022/07/13 07:23:29;;;;;;;6.97;1.10;;;;;;;29.07;35.71;99691.44;5181389;28;20518;-74
2022/07/13 07:26:20;;;;;;;3.15;1.08;;;;;;;29.16;36.13;99691.88;5186992;28;20103;-74
2022/07/13 07:29:10;;;;;;;1.80;1.00;;;;;;;29.47;35.10;99704.09;5182448;28;20554;-74
2022/07/13 07:32:01;;;;;;;6.07;0.75;;;;;;;29.56;33.69;99690.84;5165778;28;20080;-74
2022/07/13 07:34:54;;;;;;;1.95;0.77;;;;;;;29.20;36.10;99701.22;5200200;28;20064;-73
2022/07/13 07:37:44;;;;;;;5.57;1.25;;;;;;;29.68;34.87;99705.25;5200194;28;20139;-73
2022/07/13 07:40:35;;;;;;;0.85;0.70;;;;;;;29.83;34.78;99697.25;5200817;28;20542;-73
2022/07/13 07:43:25;;;;;;;1.90;0.80;;;;;;;29.08;35.29;99695.03;5201100;28;20159;-73
2022/07/13 07:46:16;;;;;;;5.03;0.70;;;;;;;28.78;35.41;99702.41;5199742;28;20049;-73
2022/07/13 07:49:06;;;;;;;6.10;0.90;;;;;;;29.19;35.11;99685.91;5182205;28;20054;-74
2022/07/13 07:51:57;;;;;;;2.13;0.60;;;;;;;30.12;32.70;99697.06;5199457;28;20478;-73
2022/07/13 07:55:07;;;;;;;2.63;0.65;;;;;;;29.86;33.66;99696.75;5192104;28;20431;-72
2022/07/13 07:57:58;;;;;;;1.40;0.68;;;;;;;29.52;33.82;99693.25;5192375;28;20045;-72
2022/07/13 08:00:48;;;;;;;0.68;0.60;;;;;;;29.73;32.37;99691.66;5191887;28;20433;-72
2022/07/13 08:03:39;;;;;;;2.97;0.88;;;;;;;30.32;31.99;99689.13;5187344;28;20135;-71
2022/07/13 08:06:29;;;;;;;3.50;0.70;;;;;;;31.37;33.57;99688.78;5177355;28;20073;-71
2022/07/13 08:09:19;;;;;;;1.33;0.70;;;;;;;31.95;30.83;99669.63;5179071;28;20076;-70
2022/07/13 08:12:10;;;;;;;2.15;0.77;;;;;;;32.55;30.49;99694.81;5169841;28;20570;-71
2022/07/13 08:15:00;;;;;;;3.85;0.85;;;;;;;32.73;31.26;99666.84;5185621;28;20108;-71
2022/07/13 08:17:50;;;;;;;2.22;0.70;;;;;;;32.20;30.10;99680.72;5188017;28;20065;-72
2022/07/13 08:20:41;;;;;;;4.03;0.82;;;;;;;31.86;29.46;99669.31;5188963;28;20053;-70
2022/07/13 08:26:40;;;;;;;1.75;0.70;;;;;;;31.01;31.02;99669.28;5187165;28;20518;-69
2022/07/13 08:29:30;;;;;;;3.10;0.77;;;;;;;30.80;30.88;99651.88;5187533;28;20671;-70
2022/07/13 08:32:21;;;;;;;1.65;0.68;;;;;;;31.25;30.36;99672.47;5184435;28;20041;-70
2022/07/13 08:38:35;;;;;;;2.97;0.70;;;;;;;31.11;31.77;99672.09;5184257;28;20046;-72
2022/07/13 08:41:25;;;;;;;1.10;0.60;;;;;;;31.65;31.99;99668.38;5176213;28;20069;-71
2022/07/13 08:44:16;;;;;;;0.80;0.80;;;;;;;32.25;28.72;99667.03;5179819;28;20060;-72
2022/07/13 08:47:09;;;;;;;1.92;0.80;;;;;;;32.44;29.90;99663.78;5181911;28;20068;-71
2022/07/13 08:50:08;;;;;;;2.22;0.50;;;;;;;32.73;29.64;99662.19;5183470;28;20833;-70
2022/07/13 08:53:00;;;;;;;1.25;0.70;;;;;;;32.82;28.22;99654.22;5182090;28;21689;-68
2022/07/13 08:55:51;;;;;;;2.42;0.57;;;;;;;31.93;28.23;99647.97;5191830;28;20053;-71
2022/07/13 08:58:41;;;;;;;2.38;0.70;;;;;;;32.54;28.57;99647.31;5188483;28;20049;-70
2022/07/13 09:01:31;;;;;;;4.47;0.70;;;;;;;32.82;26.58;99650.66;5183335;28;20057;-72
2022/07/13 09:04:22;;;;;;;3.63;0.80;;;;;;;33.09;26.68;99631.16;5185161;28;20053;-73
2022/07/13 09:07:12;;;;;;;0.90;0.50;;;;;;;33.17;26.29;99642.41;5184114;28;20140;-73
2022/07/13 09:10:04;;;;;;;3.33;0.50;;;;;;;34.40;27.10;99650.22;5201292;22;20035;-70
2022/07/13 09:12:57;;;;;;;1.70;0.50;;;;;;;34.52;24.46;99647.97;5152190;28;21292;-71
2022/07/13 09:16:12;;;;;;;2.17;0.50;;;;;;;35.01;24.63;99643.47;5163344;28;20151;-70
2022/07/13 09:19:02;;;;;;;2.78;0.80;;;;;;;35.44;25.21;99649.94;5168771;28;20069;-70
2022/07/13 09:22:15;;;;;;;0.60;0.55;;;;;;;35.49;23.20;99640.78;5157794;28;20061;-71
2022/07/13 09:25:05;;;;;;;5.35;0.80;;;;;;;35.34;22.92;99647.31;5151893;28;20204;-71
2022/07/13 09:27:56;;;;;;;1.77;0.70;;;;;;;34.50;23.54;99639.13;5153312;28;20062;-71
2022/07/13 09:30:46;;;;;;;2.25;0.60;;;;;;;34.93;23.55;99644.88;5162091;28;20159;-71
2022/07/13 09:33:44;;;;;;;2.90;0.70;;;;;;;35.18;22.14;99641.13;5152461;28;20536;-71
2022/07/13 09:36:35;;;;;;;2.92;0.60;;;;;;;36.10;24.35;99650.31;5136387;28;22325;-71
2022/07/13 09:39:25;;;;;;;1.65;0.50;;;;;;;35.28;23.52;99645.72;5145859;28;20065;-71
2022/07/13 09:42:25;;;;;;;0.68;0.60;;;;;;;35.32;23.75;99635.72;5145719;28;20073;-71
2022/07/13 09:48:24;;;;;;;1.23;0.63;;;;;;;36.63;21.72;99644.59;5143405;28;20510;-71
2022/07/13 09:51:25;;;;;;;2.25;0.60;;;;;;;36.56;22.48;99653.25;5150222;28;20054;-70
2022/07/13 09:54:16;;;;;;;0.88;0.50;;;;;;;35.75;23.45;99653.19;5152880;28;20061;-69
2022/07/13 09:57:09;;;;;;;1.85;0.60;;;;;;;36.35;22.84;99647.19;5144391;28;20065;-71
2022/07/13 10:00:00;;;;;;;4.22;0.73;;;;;;;36.34;21.55;99642.78;5147605;28;20073;-71
2022/07/13 10:02:54;;;;;;;1.13;0.60;;;;;;;36.43;20.23;99640.19;5155307;28;20065;-74
2022/07/13 10:05:46;;;;;;;2.33;0.65;;;;;;;36.25;20.89;99652.84;5146026;28;20105;-72
2022/07/13 10:08:39;;;;;;;2.58;0.60;;;;;;;36.59;21.55;99638.84;5147187;28;20185;-73
2022/07/13 10:11:29;;;;;;;1.00;0.60;;;;;;;36.39;21.92;99639.97;5144648;28;20188;-72
2022/07/13 10:14:20;;;;;;;0.68;0.52;;;;;;;36.35;19.30;99638.91;5153630;28;20116;-73
2022/07/13 10:17:13;;;;;;;1.08;0.68;;;;;;;36.18;21.64;99639.41;5151833;28;20054;-75
2022/07/13 10:20:08;;;;;;;4.55;0.50;;;;;;;36.63;18.06;99639.88;5152428;28;20057;-71
2022/07/13 10:22:59;;;;;;;1.17;0.50;;;;;;;36.84;18.33;99634.84;5149724;28;20698;-70
2022/07/13 10:25:55;;;;;;;3.05;0.60;;;;;;;36.95;19.49;99631.88;5160153;28;20551;-71
2022/07/13 10:29:01;;;;;;;0.95;0.70;;;;;;;37.10;20.27;99631.66;5143246;28;20105;-70
2022/07/13 10:31:59;;;;;;;6.45;0.70;;;;;;;37.24;20.51;99624.19;5141232;28;20050;-71
2022/07/13 10:34:54;;;;;;;1.27;0.40;;;;;;;36.28;19.06;99626.59;5180825;28;20092;-73
2022/07/13 10:38:14;;;;;;;1.48;0.60;;;;;;;36.82;18.82;99620.50;5182489;28;20123;-70
2022/07/13 10:41:21;;;;;;;3.05;0.75;;;;;;;36.92;19.62;99622.25;5152179;28;20132;-69
2022/07/13 10:44:37;;;;;;;2.50;0.50;;;;;;;36.87;20.29;99619.59;5151072;28;20123;-71
2022/07/13 10:47:44;;;;;;;2.50;0.65;;;;;;;37.13;17.82;99622.75;5148041;28;20513;-70
2022/07/13 10:50:45;;;;;;;0.40;0.40;;;;;;;36.89;18.12;99609.06;5150848;28;20074;-71
2022/07/13 10:53:39;;;;;;;0.57;0.45;;;;;;;36.80;18.64;99610.88;5148500;28;20061;-70
2022/07/13 10:56:36;;;;;;;1.80;0.60;;;;;;;36.93;18.67;99599.84;5323572;27;20393;-72
2022/07/13 11:00:16;;;;;;;2.58;1.13;;;;;;;37.09;18.14;99607.91;5323743;27;20047;-70
2022/07/13 11:03:23;;;;;;;2.28;0.52;;;;;;;36.57;17.52;99596.06;5244935;27;20056;-70
2022/07/13 11:06:23;;;;;;;2.58;0.68;;;;;;;36.03;18.23;99594.63;5285785;28;20099;-71
2022/07/13 11:09:18;;;;;;;3.13;0.50;;;;;;;35.41;19.19;99594.56;5286059;28;20059;-70
2022/07/13 11:12:21;;;;;;;3.67;0.70;;;;;;;35.25;20.23;99585.63;5283870;28;20112;-70
2022/07/13 11:15:16;;;;;;;1.77;0.60;;;;;;;34.76;20.21;99592.16;5285591;28;20051;-70
2022/07/13 11:18:24;;;;;;;1.48;0.47;;;;;;;35.39;19.25;99588.50;5279861;28;20047;-70
2022/07/13 11:21:16;;;;;;;2.80;0.55;;;;;;;35.64;20.09;99546.06;5281750;28;20108;-70
2022/07/13 11:25:19;;;;;;;0.93;0.57;;;;;;;36.14;19.51;99587.88;5274805;28;20061;-69
2022/07/13 11:27:45;;;;;;;4.45;0.80;;;;;;;36.47;18.78;99574.94;5275896;27;20131;-71
2022/07/13 11:30:36;;;;;;;1.80;0.50;;;;;;;36.27;19.55;99570.56;5267115;28;20074;-70
2022/07/13 11:33:27;;;;;;;2.53;0.55;;;;;;;35.94;19.33;99564.94;5270747;28;20059;-72
2022/07/13 11:36:22;;;;;;;2.17;0.60;;;;;;;35.90;18.90;99569.41;5269880;28;20059;-75
2022/07/13 11:39:23;;;;;;;0.50;0.50;;;;;;;35.95;19.12;99555.53;5271997;28;20059;-73
2022/07/13 11:42:13;;;;;;;2.60;0.63;;;;;;;35.73;18.56;99571.84;5263632;28;20062;-75
2022/07/13 11:45:05;;;;;;;0.88;0.50;;;;;;;35.69;18.33;99565.28;5271853;28;20624;-77
2022/07/13 11:48:05;;;;;;;0.68;0.50;;;;;;;35.29;18.01;99557.19;5282591;28;20822;-73
2022/07/13 11:50:56;;;;;;;1.27;0.52;;;;;;;34.50;18.04;99559.28;5269987;28;20574;-73
2022/07/13 11:53:46;;;;;;;1.80;0.50;;;;;;;35.23;18.77;99554.78;5274996;28;20058;-74
2022/07/13 11:56:51;;;;;;;0.43;0.40;;;;;;;35.46;19.31;99545.66;5268746;28;20048;-74
2022/07/13 11:59:43;;;;;;;1.50;0.63;;;;;;;35.42;19.23;99544.63;5269988;28;20055;-74
2022/07/13 12:02:36;;;;;;;1.55;0.60;;;;;;;35.53;18.65;99535.16;5262831;28;20058;-70
2022/07/13 12:05:28;;;;;;;;;;;;;;;35.51;17.52;99534.59;5271354;28;20515;-71
2022/07/13 12:08:18;;;;;;;0.95;0.45;;;;;;;35.27;17.85;99525.53;5242599;28;19926;-70
2022/07/13 12:11:13;;;;;;;1.63;0.43;;;;;;;35.01;19.53;99528.53;5256398;28;20596;-73
2022/07/13 12:14:04;;;;;;;1.40;0.50;;;;;;;35.25;19.81;99523.06;5259223;28;20128;-72
2022/07/13 12:16:55;;;;;;;1.95;0.60;;;;;;;35.32;19.11;99519.94;5252521;28;20144;-71
2022/07/13 12:19:45;;;;;;;2.45;0.40;;;;;;;35.36;17.76;99512.72;5255358;28;20159;-72
2022/07/13 12:22:36;;;;;;;2.92;0.60;;;;;;;34.89;17.85;99508.84;5258197;28;20432;-72
2022/07/13 12:25:32;;;;;;;2.03;0.30;;;;;;;34.99;17.47;99514.22;5246119;28;20063;-72
2022/07/13 12:28:28;;;;;;;0.70;0.52;;;;;;;34.79;17.59;99503.44;5263859;28;20063;-71
2022/07/13 12:31:20;;;;;;;0.45;0.30;;;;;;;34.75;17.64;99492.19;5258069;28;20059;-69
2022/07/13 12:34:10;;;;;;;0.90;0.80;;;;;;;34.83;15.81;99507.25;5245981;28;20100;-72
2022/07/13 12:37:04;;;;;;;1.27;0.80;;;;;;;34.96;17.27;99502.97;5247311;28;20070;-73
2022/07/13 12:39:54;;;;;;;3.58;0.70;;;;;;;34.84;18.16;99495.13;5251054;28;20112;-72
2022/07/13 12:42:47;;;;;;;1.77;0.90;;;;;;;34.56;17.74;99486.56;5242652;28;20071;-72
2022/07/13 12:45:38;;;;;;;1.10;0.90;;;;;;;34.46;17.65;99483.88;5245154;28;20469;-74
2022/07/13 12:48:30;;;;;;;2.65;0.68;;;;;;;34.31;17.48;99440.81;5238034;28;20109;-73
2022/07/13 12:51:20;;;;;;;1.58;0.50;;;;;;;34.70;18.73;99485.88;5256895;28;20079;-74
2022/07/13 12:54:12;;;;;;;2.55;0.70;;;;;;;34.76;19.22;99484.72;5262718;28;20117;-72
2022/07/13 12:57:09;;;;;;;1.00;0.68;;;;;;;34.71;18.07;99484.78;5265118;28;20088;-73
2022/07/13 13:00:01;;;;;;;1.85;0.40;;;;;;;34.71;18.35;99473.78;5265525;28;20048;-73
2022/07/13 13:02:51;;;;;;;1.20;0.50;;;;;;;34.75;18.91;99472.91;5261622;28;20138;-70
2022/07/13 13:05:43;;;;;;;3.53;0.60;;;;;;;34.84;19.46;99459.31;5256094;28;20138;-72
2022/07/13 13:08:33;;;;;;;2.75;0.70;;;;;;;34.77;18.52;99472.59;5254447;28;20058;-73
2022/07/13 13:11:23;;;;;;;4.00;0.40;;;;;;;34.96;18.59;99476.22;5253220;28;20055;-74
2022/07/13 13:14:15;;;;;;;0.75;0.60;;;;;;;34.93;19.95;99476.00;5248862;28;20067;-76
2022/07/13 13:17:05;;;;;;;1.48;0.60;;;;;;;35.02;19.87;99474.28;5238255;28;20112;-72
2022/07/13 13:19:56;;;;;;;1.85;0.40;;;;;;;34.78;18.85;99457.72;5252747;28;20067;-76
2022/07/13 13:23:00;;;;;;;2.05;0.52;;;;;;;34.84;19.32;99467.56;5264587;28;20055;-77
2022/07/13 13:25:51;;;;;;;2.47;0.50;;;;;;;34.64;19.48;99462.25;5254844;28;20105;-76
2022/07/13 13:31:50;;;;;;;0.75;0.50;;;;;;;34.40;18.16;99448.44;5259677;28;20525;-74
2022/07/13 13:34:40;;;;;;;5.75;0.70;;;;;;;34.76;19.22;99455.25;5243940;28;20050;-75
2022/07/13 13:37:31;;;;;;;2.35;0.47;;;;;;;34.55;20.01;99454.66;5256954;28;20421;-74
2022/07/13 13:40:21;;;;;;;8.20;0.80;;;;;;;34.42;19.21;99447.03;5261477;28;20081;-73
2022/07/13 13:43:11;;;;;;;5.72;0.93;;;;;;;34.53;18.66;99443.09;5251875;28;20424;-74
2022/07/13 13:46:01;;;;;;;8.93;0.80;;;;;;;34.55;21.82;99442.81;5242806;28;20063;-73